sensor_id;sensor_type;location;lat;lon;timestamp;pressure;altitude;pressure_sealevel;temperature;humidity
8162;BME280;16778;48.154;15.094;2022-07-29T00:00:09;98610.94;;;20.72;100.00
8162;BME280;16778;48.154;15.094;2022-07-29T00:02:36;98611.28;;;20.61;100.00
8162;BME280;16778;48.154;15.094;2022-07-29T00:05:03;98617.13;;;20.49;100.00
8162;BME280;16778;48.154;15.094;2022-07-29T00:07:30;98616.94;;;20.36;100.00
8162;BME280;16778;48.154;15.094;2022-07-29T00:09:56;98614.25;;;20.26;100.00
8162;BME280;16778;48.154;15.094;2022-07-29T00:12:24;98624.75;;;20.13;100.00
8162;BME280;16778;48.154;15.094;2022-07-29T00:14:50;98631.69;;;20.01;100.00
8162;BME280;16778;48.154;15.094;2022-07-29T00:17:16;98623.72;;;19.94;100.00
8162;BME280;16778;48.154;15.094;2022-07-29T00:19:41;98624.31;;;19.81;100.00
8162;BME280;16778;48.154;15.094;2022-07-29T00:22:07;98625.16;;;19.72;100.00
8162;BME280;16778;48.154;15.094;2022-07-29T00:24:33;98632.91;;;19.64;100.00
8162;BME280;16778;48.154;15.094;2022-07-29T00:26:59;98619.13;;;19.59;100.00
8162;BME280;16778;48.154;15.094;2022-07-29T00:29:25;98628.78;;;19.62;100.00
8162;BME280;16778;48.154;15.094;2022-07-29T00:31:51;98624.94;;;19.58;100.00
8162;BME280;16778;48.154;15.094;2022-07-29T00:34:17;98621.34;;;19.52;100.00
8162;BME280;16778;48.154;15.094;2022-07-29T00:37:01;98620.00;;;19.45;100.00
8162;BME280;16778;48.154;15.094;2022-07-29T00:39:27;98620.25;;;19.43;100.00
8162;BME280;16778;48.154;15.094;2022-07-29T00:41:53;98614.75;;;19.33;100.00
8162;BME280;16778;48.154;15.094;2022-07-29T00:44:19;98625.22;;;19.36;100.00
8162;BME280;16778;48.154;15.094;2022-07-29T00:46:45;98624.66;;;19.34;100.00
8162;BME280;16778;48.154;15.094;2022-07-29T00:49:11;98622.72;;;19.30;100.00
8162;BME280;16778;48.154;15.094;2022-07-29T00:51:37;98618.88;;;19.26;100.00
8162;BME280;16778;48.154;15.094;2022-07-29T00:54:04;98623.00;;;19.18;100.00
8162;BME280;16778;48.154;15.094;2022-07-29T00:56:31;98620.28;;;19.08;100.00
8162;BME280;16778;48.154;15.094;2022-07-29T00:58:59;98612.28;;;19.06;100.00
8162;BME280;16778;48.154;15.094;2022-07-29T01:01:25;98618.63;;;19.02;100.00
8162;BME280;16778;48.154;15.094;2022-07-29T01:03:52;98612.56;;;19.00;100.00
8162;BME280;16778;48.154;15.094;2022-07-29T01:06:18;98610.34;;;18.92;100.00
8162;BME280;16778;48.154;15.094;2022-07-29T01:08:45;98612.84;;;18.83;100.00
8162;BME280;16778;48.154;15.094;2022-07-29T01:11:14;98621.63;;;18.90;100.00
8162;BME280;16778;48.154;15.094;2022-07-29T01:13:42;98621.09;;;18.83;100.00
8162;BME280;16778;48.154;15.094;2022-07-29T01:16:32;98623.81;;;18.78;100.00
8162;BME280;16778;48.154;15.094;2022-07-29T01:19:13;98624.94;;;18.72;100.00
8162;BME280;16778;48.154;15.094;2022-07-29T01:21:51;98627.41;;;18.64;100.00
8162;BME280;16778;48.154;15.094;2022-07-29T01:30:22;98624.53;;;18.33;100.00
8162;BME280;16778;48.154;15.094;2022-07-29T01:32:56;98629.19;;;18.28;100.00
8162;BME280;16778;48.154;15.094;2022-07-29T01:35:28;98632.16;;;18.16;100.00
8162;BME280;16778;48.154;15.094;2022-07-29T01:38:29;98644.78;;;18.07;100.00
8162;BME280;16778;48.154;15.094;2022-07-29T01:41:07;98641.97;;;17.97;100.00
8162;BME280;16778;48.154;15.094;2022-07-29T01:43:49;98639.50;;;17.95;100.00
8162;BME280;16778;48.154;15.094;2022-07-29T01:46:25;98646.06;;;17.89;100.00
8162;BME280;16778;48.154;15.094;2022-07-29T01:48:58;98646.28;;;17.78;100.00
8162;BME280;16778;48.154;15.094;2022-07-29T01:51:36;98645.97;;;17.69;100.00
8162;BME280;16778;48.154;15.094;2022-07-29T01:56:58;98652.25;;;17.65;100.00
8162;BME280;16778;48.154;15.094;2022-07-29T01:59:26;98644.84;;;17.65;100.00
8162;BME280;16778;48.154;15.094;2022-07-29T02:01:57;98647.03;;;17.63;100.00
8162;BME280;16778;48.154;15.094;2022-07-29T02:04:24;98648.63;;;17.54;100.00
8162;BME280;16778;48.154;15.094;2022-07-29T02:06:53;98646.59;;;17.45;100.00
8162;BME280;16778;48.154;15.094;2022-07-29T02:09:21;98650.38;;;17.33;100.00
8162;BME280;16778;48.154;15.094;2022-07-29T02:11:52;98653.34;;;17.32;100.00
8162;BME280;16778;48.154;15.094;2022-07-29T02:14:22;98648.44;;;17.34;100.00
8162;BME280;16778;48.154;15.094;2022-07-29T02:16:52;98647.31;;;17.30;100.00
8162;BME280;16778;48.154;15.094;2022-07-29T02:19:23;98651.16;;;17.29;100.00
8162;BME280;16778;48.154;15.094;2022-07-29T02:21:53;98657.63;;;17.18;100.00
8162;BME280;16778;48.154;15.094;2022-07-29T02:24:22;98649.38;;;17.13;100.00
8162;BME280;16778;48.154;15.094;2022-07-29T02:26:50;98648.28;;;17.14;100.00
8162;BME280;16778;48.154;15.094;2022-07-29T02:29:25;98651.84;;;17.09;100.00
8162;BME280;16778;48.154;15.094;2022-07-29T02:31:52;98653.75;;;17.09;100.00
8162;BME280;16778;48.154;15.094;2022-07-29T02:34:20;98654.00;;;17.07;100.00
8162;BME280;16778;48.154;15.094;2022-07-29T02:36:47;98655.03;;;17.01;100.00
8162;BME280;16778;48.154;15.094;2022-07-29T02:39:15;98654.78;;;17.03;100.00
8162;BME280;16778;48.154;15.094;2022-07-29T02:41:52;98653.34;;;16.95;100.00
8162;BME280;16778;48.154;15.094;2022-07-29T02:44:23;98658.22;;;16.88;100.00
8162;BME280;16778;48.154;15.094;2022-07-29T02:47:02;98666.38;;;16.78;100.00
8162;BME280;16778;48.154;15.094;2022-07-29T02:52:20;98657.91;;;16.85;100.00
8162;BME280;16778;48.154;15.094;2022-07-29T03:00:41;98672.38;;;16.75;100.00
8162;BME280;16778;48.154;15.094;2022-07-29T03:03:13;98660.59;;;16.79;100.00
8162;BME280;16778;48.154;15.094;2022-07-29T03:05:40;98664.19;;;16.80;100.00
8162;BME280;16778;48.154;15.094;2022-07-29T03:08:09;98668.00;;;16.79;100.00
8162;BME280;16778;48.154;15.094;2022-07-29T03:10:42;98667.72;;;16.75;100.00
8162;BME280;16778;48.154;15.094;2022-07-29T03:13:09;98667.63;;;16.70;100.00
8162;BME280;16778;48.154;15.094;2022-07-29T03:15:36;98657.47;;;16.66;100.00
8162;BME280;16778;48.154;15.094;2022-07-29T03:18:02;98659.13;;;16.67;100.00
8162;BME280;16778;48.154;15.094;2022-07-29T03:20:29;98654.19;;;16.69;100.00
8162;BME280;16778;48.154;15.094;2022-07-29T03:22:55;98648.41;;;16.65;100.00
8162;BME280;16778;48.154;15.094;2022-07-29T03:25:20;98647.03;;;16.68;100.00
8162;BME280;16778;48.154;15.094;2022-07-29T03:27:47;98652.00;;;16.71;100.00
8162;BME280;16778;48.154;15.094;2022-07-29T03:30:15;98654.50;;;16.72;100.00
8162;BME280;16778;48.154;15.094;2022-07-29T03:32:41;98660.56;;;16.74;100.00
8162;BME280;16778;48.154;15.094;2022-07-29T03:35:08;98658.69;;;16.80;100.00
8162;BME280;16778;48.154;15.094;2022-07-29T03:37:34;98661.72;;;16.78;100.00
8162;BME280;16778;48.154;15.094;2022-07-29T03:40:05;98652.94;;;16.81;100.00
8162;BME280;16778;48.154;15.094;2022-07-29T03:42:35;98656.28;;;16.84;100.00
8162;BME280;16778;48.154;15.094;2022-07-29T03:45:06;98654.09;;;16.86;100.00
8162;BME280;16778;48.154;15.094;2022-07-29T03:47:35;98651.91;;;16.88;100.00
8162;BME280;16778;48.154;15.094;2022-07-29T03:50:07;98651.06;;;16.87;100.00
8162;BME280;16778;48.154;15.094;2022-07-29T03:52:34;98658.78;;;16.90;100.00
8162;BME280;16778;48.154;15.094;2022-07-29T03:55:02;98662.66;;;16.94;100.00
8162;BME280;16778;48.154;15.094;2022-07-29T03:57:30;98652.28;;;17.01;100.00
8162;BME280;16778;48.154;15.094;2022-07-29T03:59:57;98658.09;;;17.05;100.00
8162;BME280;16778;48.154;15.094;2022-07-29T04:02:24;98658.72;;;17.12;100.00
8162;BME280;16778;48.154;15.094;2022-07-29T04:04:51;98656.03;;;17.22;100.00
8162;BME280;16778;48.154;15.094;2022-07-29T04:07:17;98667.88;;;17.27;100.00
8162;BME280;16778;48.154;15.094;2022-07-29T04:09:43;98677.31;;;17.36;100.00
8162;BME280;16778;48.154;15.094;2022-07-29T04:12:10;98685.63;;;17.52;100.00
8162;BME280;16778;48.154;15.094;2022-07-29T04:14:36;98677.75;;;17.60;100.00
8162;BME280;16778;48.154;15.094;2022-07-29T04:17:04;98679.22;;;17.68;100.00
8162;BME280;16778;48.154;15.094;2022-07-29T04:19:30;98668.88;;;17.85;100.00
8162;BME280;16778;48.154;15.094;2022-07-29T04:21:58;98668.69;;;18.07;100.00
8162;BME280;16778;48.154;15.094;2022-07-29T04:24:24;98664.69;;;18.29;100.00
8162;BME280;16778;48.154;15.094;2022-07-29T04:26:51;98669.13;;;18.45;100.00
8162;BME280;16778;48.154;15.094;2022-07-29T04:29:16;98673.03;;;18.55;100.00
8162;BME280;16778;48.154;15.094;2022-07-29T04:31:43;98678.84;;;18.73;100.00
8162;BME280;16778;48.154;15.094;2022-07-29T04:34:09;98678.31;;;18.86;100.00
8162;BME280;16778;48.154;15.094;2022-07-29T04:36:35;98680.28;;;18.96;100.00
8162;BME280;16778;48.154;15.094;2022-07-29T04:39:02;98686.06;;;18.99;100.00
8162;BME280;16778;48.154;15.094;2022-07-29T04:41:28;98678.06;;;18.98;100.00
8162;BME280;16778;48.154;15.094;2022-07-29T04:43:54;98686.34;;;19.03;100.00
8162;BME280;16778;48.154;15.094;2022-07-29T04:46:21;98681.09;;;19.06;100.00
8162;BME280;16778;48.154;15.094;2022-07-29T04:48:47;98675.88;;;19.10;100.00
8162;BME280;16778;48.154;15.094;2022-07-29T04:51:16;98676.72;;;19.16;100.00
8162;BME280;16778;48.154;15.094;2022-07-29T04:53:42;98682.50;;;19.19;100.00
8162;BME280;16778;48.154;15.094;2022-07-29T04:56:08;98684.72;;;19.27;100.00
8162;BME280;16778;48.154;15.094;2022-07-29T04:58:35;98679.47;;;19.36;100.00
8162;BME280;16778;48.154;15.094;2022-07-29T05:01:01;98686.94;;;19.40;100.00
8162;BME280;16778;48.154;15.094;2022-07-29T05:03:27;98697.13;;;19.50;100.00
8162;BME280;16778;48.154;15.094;2022-07-29T05:05:53;98698.75;;;19.66;100.00
8162;BME280;16778;48.154;15.094;2022-07-29T05:08:19;98691.06;;;19.73;100.00
8162;BME280;16778;48.154;15.094;2022-07-29T05:10:45;98697.09;;;19.80;100.00
8162;BME280;16778;48.154;15.094;2022-07-29T05:13:11;98692.69;;;19.84;100.00
8162;BME280;16778;48.154;15.094;2022-07-29T05:15:37;98696.25;;;19.80;100.00
8162;BME280;16778;48.154;15.094;2022-07-29T05:18:03;98694.06;;;19.87;100.00
8162;BME280;16778;48.154;15.094;2022-07-29T05:20:30;98703.97;;;19.83;100.00
8162;BME280;16778;48.154;15.094;2022-07-29T05:23:00;98703.44;;;19.81;100.00
8162;BME280;16778;48.154;15.094;2022-07-29T05:25:27;98708.94;;;19.81;100.00
8162;BME280;16778;48.154;15.094;2022-07-29T05:27:53;98709.22;;;19.74;100.00
8162;BME280;16778;48.154;15.094;2022-07-29T05:30:20;98722.72;;;19.71;100.00
8162;BME280;16778;48.154;15.094;2022-07-29T05:32:46;98703.19;;;19.62;100.00
8162;BME280;16778;48.154;15.094;2022-07-29T05:35:13;98715.59;;;19.54;100.00
8162;BME280;16778;48.154;15.094;2022-07-29T05:37:40;98707.88;;;19.46;100.00
8162;BME280;16778;48.154;15.094;2022-07-29T05:40:06;98707.06;;;19.41;100.00
8162;BME280;16778;48.154;15.094;2022-07-29T05:42:32;98704.81;;;19.38;100.00
8162;BME280;16778;48.154;15.094;2022-07-29T05:45:00;98713.38;;;19.36;100.00
8162;BME280;16778;48.154;15.094;2022-07-29T05:47:26;98725.47;;;19.35;100.00
8162;BME280;16778;48.154;15.094;2022-07-29T05:49:52;98714.16;;;19.27;100.00
8162;BME280;16778;48.154;15.094;2022-07-29T05:52:20;98712.78;;;19.19;100.00
8162;BME280;16778;48.154;15.094;2022-07-29T05:54:46;98712.78;;;19.09;100.00
8162;BME280;16778;48.154;15.094;2022-07-29T05:57:20;98717.72;;;19.07;100.00
8162;BME280;16778;48.154;15.094;2022-07-29T05:59:47;98710.00;;;19.09;100.00
8162;BME280;16778;48.154;15.094;2022-07-29T06:02:13;98702.59;;;19.09;100.00
8162;BME280;16778;48.154;15.094;2022-07-29T06:04:39;98716.63;;;19.23;100.00
8162;BME280;16778;48.154;15.094;2022-07-29T06:07:05;98716.66;;;19.33;100.00
8162;BME280;16778;48.154;15.094;2022-07-29T06:09:32;98708.41;;;19.33;100.00
8162;BME280;16778;48.154;15.094;2022-07-29T06:11:58;98712.25;;;19.37;100.00
8162;BME280;16778;48.154;15.094;2022-07-29T06:14:25;98709.25;;;19.49;100.00
8162;BME280;16778;48.154;15.094;2022-07-29T06:16:52;98710.34;;;19.53;100.00
8162;BME280;16778;48.154;15.094;2022-07-29T06:19:18;98712.53;;;19.51;100.00
8162;BME280;16778;48.154;15.094;2022-07-29T06:21:46;98709.25;;;19.49;100.00
8162;BME280;16778;48.154;15.094;2022-07-29T06:24:13;98709.81;;;19.41;100.00
8162;BME280;16778;48.154;15.094;2022-07-29T06:26:40;98710.59;;;19.31;100.00
8162;BME280;16778;48.154;15.094;2022-07-29T06:29:07;98719.69;;;19.27;100.00
8162;BME280;16778;48.154;15.094;2022-07-29T06:31:34;98715.00;;;19.27;100.00
8162;BME280;16778;48.154;15.094;2022-07-29T06:34:00;98720.78;;;19.26;100.00
8162;BME280;16778;48.154;15.094;2022-07-29T06:36:25;98725.19;;;19.22;100.00
8162;BME280;16778;48.154;15.094;2022-07-29T06:38:51;98725.44;;;19.15;100.00
8162;BME280;16778;48.154;15.094;2022-07-29T06:41:17;98722.97;;;19.24;100.00
8162;BME280;16778;48.154;15.094;2022-07-29T06:43:44;98722.16;;;19.13;100.00
8162;BME280;16778;48.154;15.094;2022-07-29T06:46:14;98716.09;;;19.21;100.00
8162;BME280;16778;48.154;15.094;2022-07-29T06:48:43;98711.41;;;19.22;100.00
8162;BME280;16778;48.154;15.094;2022-07-29T06:51:10;98718.84;;;19.21;100.00
8162;BME280;16778;48.154;15.094;2022-07-29T06:53:38;98725.47;;;19.25;100.00
8162;BME280;16778;48.154;15.094;2022-07-29T06:56:06;98716.09;;;19.31;100.00
8162;BME280;16778;48.154;15.094;2022-07-29T06:58:34;98716.66;;;19.33;100.00
8162;BME280;16778;48.154;15.094;2022-07-29T07:01:05;98733.22;;;19.43;100.00
8162;BME280;16778;48.154;15.094;2022-07-29T07:03:31;98739.00;;;19.57;100.00
8162;BME280;16778;48.154;15.094;2022-07-29T07:05:58;98729.91;;;19.61;100.00
8162;BME280;16778;48.154;15.094;2022-07-29T07:08:24;98731.25;;;19.79;100.00
8162;BME280;16778;48.154;15.094;2022-07-29T07:10:51;98724.59;;;20.10;100.00
8162;BME280;16778;48.154;15.094;2022-07-29T07:13:17;98724.53;;;20.41;100.00
8162;BME280;16778;48.154;15.094;2022-07-29T07:15:44;98710.31;;;20.72;100.00
8162;BME280;16778;48.154;15.094;2022-07-29T07:18:10;98718.47;;;20.93;100.00
8162;BME280;16778;48.154;15.094;2022-07-29T07:20:36;98720.00;;;21.19;100.00
8162;BME280;16778;48.154;15.094;2022-07-29T07:23:02;98718.94;;;21.49;100.00
8162;BME280;16778;48.154;15.094;2022-07-29T07:25:29;98717.84;;;21.78;100.00
8162;BME280;16778;48.154;15.094;2022-07-29T07:27:54;98731.94;;;22.11;100.00
8162;BME280;16778;48.154;15.094;2022-07-29T07:30:20;98736.03;;;22.42;100.00
8162;BME280;16778;48.154;15.094;2022-07-29T07:32:46;98749.06;;;22.65;100.00
8162;BME280;16778;48.154;15.094;2022-07-29T07:35:12;98744.28;;;22.71;100.00
8162;BME280;16778;48.154;15.094;2022-07-29T07:37:39;98738.84;;;22.84;100.00
8162;BME280;16778;48.154;15.094;2022-07-29T07:40:08;98737.09;;;22.88;100.00
8162;BME280;16778;48.154;15.094;2022-07-29T07:42:34;98745.81;;;23.00;100.00
8162;BME280;16778;48.154;15.094;2022-07-29T07:45:00;98741.41;;;23.18;100.00
8162;BME280;16778;48.154;15.094;2022-07-29T07:47:26;98743.75;;;23.48;100.00
8162;BME280;16778;48.154;15.094;2022-07-29T07:49:52;98748.56;;;23.75;100.00
8162;BME280;16778;48.154;15.094;2022-07-29T07:52:21;98748.28;;;23.77;100.00
8162;BME280;16778;48.154;15.094;2022-07-29T07:54:48;98756.09;;;23.56;100.00
8162;BME280;16778;48.154;15.094;2022-07-29T07:57:14;98757.16;;;23.60;100.00
8162;BME280;16778;48.154;15.094;2022-07-29T07:59:41;98763.13;;;23.67;100.00
8162;BME280;16778;48.154;15.094;2022-07-29T08:02:07;98769.25;;;23.83;100.00
8162;BME280;16778;48.154;15.094;2022-07-29T08:04:34;98764.72;;;23.87;100.00
8162;BME280;16778;48.154;15.094;2022-07-29T08:07:01;98763.53;;;24.06;100.00
8162;BME280;16778;48.154;15.094;2022-07-29T08:09:28;98767.91;;;24.12;100.00
8162;BME280;16778;48.154;15.094;2022-07-29T08:11:55;98763.91;;;23.86;100.00
8162;BME280;16778;48.154;15.094;2022-07-29T08:14:21;98762.97;;;24.09;100.00
8162;BME280;16778;48.154;15.094;2022-07-29T08:16:47;98773.78;;;24.11;100.00
8162;BME280;16778;48.154;15.094;2022-07-29T08:19:13;98770.69;;;24.12;100.00
8162;BME280;16778;48.154;15.094;2022-07-29T08:21:39;98765.25;;;24.21;100.00
8162;BME280;16778;48.154;15.094;2022-07-29T08:24:05;98768.53;;;24.09;100.00
8162;BME280;16778;48.154;15.094;2022-07-29T08:26:50;98759.53;;;23.99;100.00
8162;BME280;16778;48.154;15.094;2022-07-29T08:29:16;98770.13;;;23.97;100.00
8162;BME280;16778;48.154;15.094;2022-07-29T08:31:42;98767.72;;;23.90;100.00
8162;BME280;16778;48.154;15.094;2022-07-29T08:34:08;98765.22;;;24.07;100.00
8162;BME280;16778;48.154;15.094;2022-07-29T08:36:34;98771.13;;;24.19;100.00
8162;BME280;16778;48.154;15.094;2022-07-29T08:39:01;98779.38;;;24.52;100.00
8162;BME280;16778;48.154;15.094;2022-07-29T08:41:27;98775.69;;;24.70;100.00
8162;BME280;16778;48.154;15.094;2022-07-29T08:43:53;98784.88;;;24.98;100.00
8162;BME280;16778;48.154;15.094;2022-07-29T08:46:20;98790.50;;;25.20;100.00
8162;BME280;16778;48.154;15.094;2022-07-29T08:48:47;98796.84;;;25.48;100.00
8162;BME280;16778;48.154;15.094;2022-07-29T08:51:17;98794.91;;;25.34;100.00
8162;BME280;16778;48.154;15.094;2022-07-29T08:53:46;98800.88;;;25.28;100.00
8162;BME280;16778;48.154;15.094;2022-07-29T08:56:16;98792.38;;;25.47;100.00
8162;BME280;16778;48.154;15.094;2022-07-29T08:58:45;98789.97;;;25.67;100.00
8162;BME280;16778;48.154;15.094;2022-07-29T09:01:15;98798.97;;;25.15;100.00
8162;BME280;16778;48.154;15.094;2022-07-29T09:03:44;98800.31;;;25.04;100.00
8162;BME280;16778;48.154;15.094;2022-07-29T09:06:18;98801.00;;;24.68;100.00
8162;BME280;16778;48.154;15.094;2022-07-29T09:08:47;98795.66;;;24.45;100.00
8162;BME280;16778;48.154;15.094;2022-07-29T09:11:14;98800.34;;;24.31;100.00
8162;BME280;16778;48.154;15.094;2022-07-29T09:13:40;98791.81;;;24.27;100.00
8162;BME280;16778;48.154;15.094;2022-07-29T09:16:07;98794.09;;;24.39;100.00
8162;BME280;16778;48.154;15.094;2022-07-29T09:20:58;98797.16;;;24.37;100.00
8162;BME280;16778;48.154;15.094;2022-07-29T09:24:03;98795.34;;;24.73;100.00
8162;BME280;16778;48.154;15.094;2022-07-29T09:26:31;98790.44;;;24.98;100.00
8162;BME280;16778;48.154;15.094;2022-07-29T09:28:58;98779.63;;;25.46;100.00
8162;BME280;16778;48.154;15.094;2022-07-29T09:31:37;98778.53;;;26.13;96.75
8162;BME280;16778;48.154;15.094;2022-07-29T09:34:05;98771.28;;;26.34;94.25
8162;BME280;16778;48.154;15.094;2022-07-29T09:36:43;98774.72;;;26.71;88.05
8162;BME280;16778;48.154;15.094;2022-07-29T09:39:10;98765.38;;;27.23;84.31
8162;BME280;16778;48.154;15.094;2022-07-29T09:41:51;98763.78;;;27.39;80.43
8162;BME280;16778;48.154;15.094;2022-07-29T09:44:22;98760.03;;;27.61;77.18
8162;BME280;16778;48.154;15.094;2022-07-29T09:47:04;98767.09;;;27.50;81.21
8162;BME280;16778;48.154;15.094;2022-07-29T09:49:35;98757.47;;;26.99;79.95
8162;BME280;16778;48.154;15.094;2022-07-29T09:54:32;98752.94;;;26.73;84.48
8162;BME280;16778;48.154;15.094;2022-07-29T09:57:07;98751.44;;;26.75;81.29
8162;BME280;16778;48.154;15.094;2022-07-29T09:59:34;98755.03;;;26.67;82.95
8162;BME280;16778;48.154;15.094;2022-07-29T10:02:00;98749.25;;;26.46;82.20
8162;BME280;16778;48.154;15.094;2022-07-29T10:04:41;98752.69;;;26.52;83.33
8162;BME280;16778;48.154;15.094;2022-07-29T10:07:08;98750.63;;;26.66;83.73
8162;BME280;16778;48.154;15.094;2022-07-29T10:09:35;98752.91;;;27.21;81.68
8162;BME280;16778;48.154;15.094;2022-07-29T10:12:11;98752.31;;;27.41;77.94
8162;BME280;16778;48.154;15.094;2022-07-29T10:14:42;98751.59;;;27.27;79.65
8162;BME280;16778;48.154;15.094;2022-07-29T10:17:09;98751.16;;;27.68;77.13
8162;BME280;16778;48.154;15.094;2022-07-29T10:19:37;98756.56;;;28.07;77.86
8162;BME280;16778;48.154;15.094;2022-07-29T10:22:09;98751.66;;;28.50;73.79
8162;BME280;16778;48.154;15.094;2022-07-29T10:24:37;98754.25;;;28.55;72.07
8162;BME280;16778;48.154;15.094;2022-07-29T10:27:07;98744.81;;;28.31;74.20
8162;BME280;16778;48.154;15.094;2022-07-29T10:29:33;98739.44;;;28.63;74.22
8162;BME280;16778;48.154;15.094;2022-07-29T10:44:08;98720.09;;;30.12;65.10
8162;BME280;16778;48.154;15.094;2022-07-29T10:46:40;98709.16;;;29.86;67.59
8162;BME280;16778;48.154;15.094;2022-07-29T10:49:21;98716.59;;;29.61;68.74
8162;BME280;16778;48.154;15.094;2022-07-29T10:54:42;98709.97;;;29.86;68.29
8162;BME280;16778;48.154;15.094;2022-07-29T10:57:16;98705.81;;;30.05;65.49
8162;BME280;16778;48.154;15.094;2022-07-29T10:59:45;98698.94;;;30.14;64.59
8162;BME280;16778;48.154;15.094;2022-07-29T11:07:26;98695.75;;;29.92;70.12
8162;BME280;16778;48.154;15.094;2022-07-29T11:15:17;98695.19;;;31.43;67.66
8162;BME280;16778;48.154;15.094;2022-07-29T11:23:30;98699.44;;;32.36;61.46
8162;BME280;16778;48.154;15.094;2022-07-29T11:26:18;98700.94;;;32.61;58.14
8162;BME280;16778;48.154;15.094;2022-07-29T11:28:57;98710.63;;;32.64;63.43
8162;BME280;16778;48.154;15.094;2022-07-29T11:31:48;98707.78;;;32.95;62.72
8162;BME280;16778;48.154;15.094;2022-07-29T11:34:20;98709.25;;;32.74;58.70
8162;BME280;16778;48.154;15.094;2022-07-29T11:45:00;98708.31;;;33.70;58.14
8162;BME280;16778;48.154;15.094;2022-07-29T11:47:27;98699.75;;;33.86;55.72
8162;BME280;16778;48.154;15.094;2022-07-29T11:50:00;98699.75;;;33.86;52.78
8162;BME280;16778;48.154;15.094;2022-07-29T11:52:44;98695.59;;;33.80;55.70
8162;BME280;16778;48.154;15.094;2022-07-29T11:55:15;98692.31;;;33.97;53.42
8162;BME280;16778;48.154;15.094;2022-07-29T11:57:54;98704.50;;;32.93;56.42
8162;BME280;16778;48.154;15.094;2022-07-29T12:02:48;98696.38;;;32.57;57.67
8162;BME280;16778;48.154;15.094;2022-07-29T12:05:14;98683.75;;;32.35;58.62
8162;BME280;16778;48.154;15.094;2022-07-29T12:07:40;98675.91;;;31.70;61.71
8162;BME280;16778;48.154;15.094;2022-07-29T12:10:07;98668.53;;;30.61;65.35
8162;BME280;16778;48.154;15.094;2022-07-29T12:12:34;98670.03;;;30.47;69.76
8162;BME280;16778;48.154;15.094;2022-07-29T12:15:17;98665.47;;;30.78;72.07
8162;BME280;16778;48.154;15.094;2022-07-29T12:17:47;98675.25;;;31.21;70.66
8162;BME280;16778;48.154;15.094;2022-07-29T12:20:14;98676.66;;;31.27;70.20
8162;BME280;16778;48.154;15.094;2022-07-29T12:22:47;98685.03;;;31.67;68.66
8162;BME280;16778;48.154;15.094;2022-07-29T12:25:14;98681.47;;;32.09;65.26
8162;BME280;16778;48.154;15.094;2022-07-29T12:27:42;98676.41;;;32.46;63.24
8162;BME280;16778;48.154;15.094;2022-07-29T12:30:16;98682.31;;;32.73;61.38
8162;BME280;16778;48.154;15.094;2022-07-29T12:32:47;98686.09;;;32.02;61.60
8162;BME280;16778;48.154;15.094;2022-07-29T12:35:20;98690.50;;;31.75;64.07
8162;BME280;16778;48.154;15.094;2022-07-29T12:37:48;98691.97;;;31.69;61.23
8162;BME280;16778;48.154;15.094;2022-07-29T12:40:17;98685.47;;;31.53;63.75
8162;BME280;16778;48.154;15.094;2022-07-29T12:43:06;98697.28;;;30.70;65.46
8162;BME280;16778;48.154;15.094;2022-07-29T12:45:33;98688.16;;;30.73;69.21
8162;BME280;16778;48.154;15.094;2022-07-29T12:47:59;98688.97;;;30.62;70.04
8162;BME280;16778;48.154;15.094;2022-07-29T12:50:25;98691.78;;;30.62;70.40
8162;BME280;16778;48.154;15.094;2022-07-29T12:52:51;98684.75;;;30.92;68.32
8162;BME280;16778;48.154;15.094;2022-07-29T12:55:44;98679.63;;;30.94;66.53
8162;BME280;16778;48.154;15.094;2022-07-29T12:58:38;98687.16;;;31.30;65.03
8162;BME280;16778;48.154;15.094;2022-07-29T13:01:15;98680.19;;;31.12;64.01
8162;BME280;16778;48.154;15.094;2022-07-29T13:03:52;98672.78;;;31.19;64.20
8162;BME280;16778;48.154;15.094;2022-07-29T13:06:39;98656.03;;;30.59;70.90
8162;BME280;16778;48.154;15.094;2022-07-29T13:09:16;98650.50;;;30.74;71.39
8162;BME280;16778;48.154;15.094;2022-07-29T13:11:50;98644.50;;;31.12;69.77
8162;BME280;16778;48.154;15.094;2022-07-29T13:14:33;98648.00;;;31.21;64.50
8162;BME280;16778;48.154;15.094;2022-07-29T13:20:04;98638.91;;;31.00;66.56
8162;BME280;16778;48.154;15.094;2022-07-29T13:22:30;98643.50;;;30.80;60.77
8162;BME280;16778;48.154;15.094;2022-07-29T13:24:59;98644.50;;;31.12;62.51
8162;BME280;16778;48.154;15.094;2022-07-29T13:27:31;98634.63;;;31.58;60.29
8162;BME280;16778;48.154;15.094;2022-07-29T13:29:59;98630.72;;;31.47;56.71
8162;BME280;16778;48.154;15.094;2022-07-29T13:32:28;98623.63;;;31.81;57.73
8162;BME280;16778;48.154;15.094;2022-07-29T13:34:59;98630.06;;;31.66;59.79
8162;BME280;16778;48.154;15.094;2022-07-29T13:37:26;98628.97;;;31.70;62.06
8162;BME280;16778;48.154;15.094;2022-07-29T13:39:55;98619.25;;;31.52;60.44
8162;BME280;16778;48.154;15.094;2022-07-29T13:42:22;98623.28;;;31.98;58.21
8162;BME280;16778;48.154;15.094;2022-07-29T13:44:48;98629.47;;;33.16;54.26
8162;BME280;16778;48.154;15.094;2022-07-29T13:47:16;98623.59;;;33.44;54.05
8162;BME280;16778;48.154;15.094;2022-07-29T13:49:42;98619.56;;;34.25;51.44
8162;BME280;16778;48.154;15.094;2022-07-29T13:52:08;98616.22;;;34.91;46.59
8162;BME280;16778;48.154;15.094;2022-07-29T13:54:34;98622.56;;;36.11;46.91
8162;BME280;16778;48.154;15.094;2022-07-29T13:57:07;98627.22;;;37.56;43.90
8162;BME280;16778;48.154;15.094;2022-07-29T13:59:33;98624.38;;;37.49;42.25
8162;BME280;16778;48.154;15.094;2022-07-29T14:01:59;98621.31;;;38.00;42.85
8162;BME280;16778;48.154;15.094;2022-07-29T14:04:25;98622.16;;;38.85;40.67
8162;BME280;16778;48.154;15.094;2022-07-29T14:06:51;98615.66;;;38.92;39.55
8162;BME280;16778;48.154;15.094;2022-07-29T14:09:18;98607.44;;;39.40;38.85